Swea City, Iowa
Current Conditions -  °F | °C
As of 8:35 PM on Wednesday 26 Nov 2014 (Local Time) from KFRM Reporting Station
Overcast Overcast  
Wind Chill: -22°   Ceiling: 2600
Heat Index: -12°   Visibility: 10mi
Dew Point: -15°   Wind: 17mph
Humidity: 79%   Direction: 310°NW
Pressure: 30.34"   Gusts: NA
Location:  43.38°N, 94.31°W
Report Text: KFRM 270235Z AUTO 31015KT 10SM OVC026 M12/M15 A3034 RMK AO1
Loading
Personal Weather Stations






























Interactive Weather Map New forecast layout! Learn more

10-Day Weather Forecast

Advertisements
Track Severe Weather on mobile